Time;durP1;ratioP1;P1;durP2;ratioP2;P2;SDS_P1;SDS_P2;PMS_P1;PMS_P2;Temp;Humidity;BMP_temperature;BMP_pressure;BME280_temperature;BME280_humidity;BME280_pressure;Samples;Min_cycle;Max_cycle;Signal;HPM_P1;HPM_P2
2023/05/04 00:01:09;;;;;;;11.70;5.75;;;5.90;99.90;;;;;;5018595;28;20451;-71
2023/05/04 00:03:38;;;;;;;9.40;5.83;;;6.00;99.90;;;;;;5010176;28;20416;-73
2023/05/04 00:06:04;;;;;;;13.07;6.25;;;6.00;99.90;;;;;;5008220;28;20421;-73
2023/05/04 00:08:30;;;;;;;8.45;5.60;;;5.90;99.90;;;;;;5010376;28;20431;-75
2023/05/04 00:10:56;;;;;;;12.55;6.75;;;5.90;99.90;;;;;;5011064;28;20420;-72
2023/05/04 00:13:22;;;;;;;12.60;6.93;;;6.00;99.90;;;;;;5007888;28;20420;-74
2023/05/04 00:15:47;;;;;;;10.63;6.73;;;5.90;99.90;;;;;;5008858;28;20465;-72
2023/05/04 00:18:13;;;;;;;11.07;5.97;;;6.00;99.90;;;;;;5008597;28;20460;-74
2023/05/04 00:20:38;;;;;;;11.43;6.73;;;5.90;99.90;;;;;;5022425;28;20423;-73
2023/05/04 00:23:04;;;;;;;10.57;6.50;;;5.80;99.90;;;;;;5028505;28;20925;-72
2023/05/04 00:25:30;;;;;;;13.60;7.63;;;5.80;99.90;;;;;;5010780;28;21244;-72
2023/05/04 00:27:56;;;;;;;10.57;6.67;;;5.80;99.90;;;;;;5009728;28;20427;-72
2023/05/04 00:30:22;;;;;;;12.13;6.70;;;5.70;99.90;;;;;;5009554;28;20819;-74
2023/05/04 00:32:47;;;;;;;10.05;6.57;;;5.70;99.90;;;;;;5008160;28;21619;-74
2023/05/04 00:35:13;;;;;;;14.77;7.07;;;5.70;99.90;;;;;;5009512;28;20459;-73
2023/05/04 00:37:38;;;;;;;11.13;6.37;;;5.70;99.90;;;;;;5007304;28;21003;-73
2023/05/04 00:40:05;;;;;;;14.33;6.83;;;5.70;99.90;;;;;;5006221;28;20437;-72
2023/05/04 00:42:30;;;;;;;8.40;6.05;;;5.70;99.90;;;;;;5012569;28;20429;-75
2023/05/04 00:44:56;;;;;;;12.63;7.05;;;5.60;99.90;;;;;;5008677;28;20413;-72
2023/05/04 00:47:22;;;;;;;10.25;6.60;;;5.60;99.90;;;;;;5007559;28;20886;-72
2023/05/04 00:49:48;;;;;;;8.60;6.27;;;5.70;99.90;;;;;;5010727;28;20511;-71
2023/05/04 00:52:15;;;;;;;12.27;6.88;;;5.70;99.90;;;;;;5023379;28;20508;-72
2023/05/04 00:54:45;;;;;;;10.43;6.32;;;5.60;99.90;;;;;;5011398;28;20464;-71
2023/05/04 00:57:11;;;;;;;12.77;6.80;;;5.70;99.90;;;;;;5016440;28;20430;-72
2023/05/04 00:59:38;;;;;;;12.75;6.93;;;5.60;99.90;;;;;;5007136;28;20455;-71
2023/05/04 01:02:04;;;;;;;10.52;7.22;;;5.60;99.90;;;;;;5007686;28;20468;-72
2023/05/04 01:04:30;;;;;;;14.32;7.53;;;5.40;99.90;;;;;;5009349;28;20460;-71
2023/05/04 01:07:18;;;;;;;12.45;7.38;;;5.60;99.90;;;;;;5006784;28;20498;-75
2023/05/04 01:09:48;;;;;;;13.03;7.03;;;5.50;99.90;;;;;;5005523;28;20589;-72
2023/05/04 01:12:24;;;;;;;11.18;6.90;;;5.60;99.90;;;;;;5008169;28;20785;-71
2023/05/04 01:14:52;;;;;;;9.25;6.53;;;5.70;99.90;;;;;;5007070;28;20951;-73
2023/05/04 01:17:19;;;;;;;11.10;7.03;;;5.50;99.90;;;;;;5010171;28;20511;-73
2023/05/04 01:19:44;;;;;;;10.18;6.78;;;5.60;99.90;;;;;;5006620;28;20985;-75
2023/05/04 01:22:10;;;;;;;16.70;7.97;;;5.60;99.90;;;;;;5022297;28;20586;-72
2023/05/04 01:24:36;;;;;;;9.77;6.73;;;5.60;99.90;;;;;;5014151;28;20853;-75
2023/05/04 01:27:07;;;;;;;14.52;8.10;;;5.60;99.90;;;;;;5004593;28;20436;-77
2023/05/04 01:30:01;;;;;;;13.35;7.88;;;5.50;99.90;;;;;;5008740;28;20412;-72
2023/05/04 01:32:28;;;;;;;11.77;6.80;;;5.50;99.90;;;;;;4993415;28;20436;-74
2023/05/04 01:34:54;;;;;;;7.80;6.70;;;5.50;99.90;;;;;;5009311;28;21018;-73
2023/05/04 01:37:20;;;;;;;13.50;6.88;;;5.60;99.90;;;;;;5006327;28;20486;-75
2023/05/04 01:39:46;;;;;;;12.37;7.07;;;5.50;99.90;;;;;;5023823;28;20431;-74
2023/05/04 01:42:11;;;;;;;9.87;7.07;;;5.60;99.90;;;;;;5003566;28;20531;-71
2023/05/04 01:44:37;;;;;;;11.30;6.77;;;5.50;99.90;;;;;;5007459;28;20499;-73
2023/05/04 01:47:03;;;;;;;11.23;6.87;;;5.60;99.90;;;;;;5007743;28;20523;-71
2023/05/04 01:49:28;;;;;;;13.07;8.00;;;5.60;99.90;;;;;;5006660;28;20504;-74
2023/05/04 01:51:54;;;;;;;12.20;7.20;;;5.50;99.90;;;;;;5007412;28;20456;-72
2023/05/04 01:54:20;;;;;;;13.30;7.28;;;5.60;99.90;;;;;;5004656;28;20436;-75
2023/05/04 01:56:45;;;;;;;11.97;7.60;;;5.60;99.90;;;;;;5008727;28;20994;-74
2023/05/04 01:59:11;;;;;;;11.25;7.32;;;5.50;99.90;;;;;;5006896;28;20908;-74
2023/05/04 02:01:37;;;;;;;11.00;7.82;;;5.50;99.90;;;;;;5000408;28;20432;-74
2023/05/04 02:04:03;;;;;;;12.27;7.60;;;5.60;99.90;;;;;;5008602;28;20424;-73
2023/05/04 02:06:28;;;;;;;14.02;7.88;;;5.40;99.90;;;;;;5012702;28;20431;-72
2023/05/04 02:08:54;;;;;;;12.40;8.63;;;5.40;99.90;;;;;;5015238;28;20416;-74
2023/05/04 02:11:21;;;;;;;12.60;8.13;;;5.50;99.90;;;;;;5007844;28;21076;-72
2023/05/04 02:13:47;;;;;;;12.82;8.40;;;5.60;99.90;;;;;;5011267;28;20500;-71
2023/05/04 02:16:13;;;;;;;12.95;8.88;;;5.50;99.90;;;;;;5007194;28;20442;-74
2023/05/04 02:18:38;;;;;;;15.23;9.40;;;5.40;99.90;;;;;;5006559;28;20482;-75
2023/05/04 02:21:04;;;;;;;12.60;9.05;;;5.50;99.90;;;;;;5018449;28;22393;-72
2023/05/04 02:23:30;;;;;;;13.45;8.43;;;5.50;99.90;;;;;;4996396;28;20417;-74
2023/05/04 02:25:56;;;;;;;15.02;8.88;;;5.60;99.90;;;;;;5006411;28;20424;-73
2023/05/04 02:28:21;;;;;;;13.30;8.90;;;5.50;99.90;;;;;;5007553;28;20396;-73
2023/05/04 02:30:47;;;;;;;12.30;8.88;;;5.50;99.90;;;;;;5007728;28;20789;-73
2023/05/04 02:33:12;;;;;;;16.67;9.05;;;5.60;99.90;;;;;;5020499;28;20822;-73
2023/05/04 02:35:38;;;;;;;17.70;9.00;;;5.50;99.90;;;;;;5005049;28;20420;-74
2023/05/04 02:38:05;;;;;;;13.00;8.90;;;5.70;99.90;;;;;;5010058;28;20431;-74
2023/05/04 02:40:30;;;;;;;11.50;8.02;;;5.60;99.90;;;;;;5015671;28;20456;-72
2023/05/04 02:42:56;;;;;;;12.50;8.05;;;5.50;99.90;;;;;;5005817;28;20432;-72
2023/05/04 02:45:22;;;;;;;16.42;9.25;;;5.50;99.90;;;;;;5006496;28;20507;-76
2023/05/04 02:47:47;;;;;;;11.25;8.20;;;5.60;99.90;;;;;;5003583;28;20436;-72
2023/05/04 02:50:13;;;;;;;13.67;8.73;;;5.60;99.90;;;;;;5020480;28;20816;-75
2023/05/04 02:52:39;;;;;;;18.08;9.93;;;5.60;99.90;;;;;;5015724;28;20963;-74
2023/05/04 02:55:05;;;;;;;13.10;9.13;;;5.60;99.90;;;;;;5007205;28;20421;-73
2023/05/04 02:57:31;;;;;;;17.33;9.10;;;5.40;99.90;;;;;;5002588;28;20425;-72
2023/05/04 02:59:56;;;;;;;10.23;7.80;;;5.60;99.90;;;;;;5010088;28;20497;-73
2023/05/04 03:02:22;;;;;;;15.10;8.40;;;5.60;99.90;;;;;;5006487;28;20464;-74
2023/05/04 03:04:48;;;;;;;11.30;8.03;;;5.50;99.90;;;;;;5006835;28;20456;-72
2023/05/04 03:07:13;;;;;;;15.53;8.90;;;5.60;99.90;;;;;;5003922;28;20432;-77
2023/05/04 03:09:39;;;;;;;11.10;7.80;;;5.60;99.90;;;;;;5006193;28;20508;-71
2023/05/04 03:12:05;;;;;;;14.02;9.32;;;5.60;99.90;;;;;;5009221;28;20437;-73
2023/05/04 03:14:31;;;;;;;11.82;8.18;;;5.60;99.90;;;;;;5012151;28;20789;-73
2023/05/04 03:16:57;;;;;;;12.30;8.45;;;5.60;99.90;;;;;;5003566;28;20443;-73
2023/05/04 03:19:23;;;;;;;12.95;8.82;;;5.60;99.90;;;;;;5006131;28;20421;-73
2023/05/04 03:21:49;;;;;;;12.50;9.07;;;5.70;99.90;;;;;;5005431;28;20432;-72
2023/05/04 03:24:16;;;;;;;11.57;8.75;;;5.70;99.90;;;;;;5005840;28;20436;-72
2023/05/04 03:26:42;;;;;;;16.33;8.77;;;5.80;99.90;;;;;;5004927;28;20449;-74
2023/05/04 03:29:09;;;;;;;13.68;8.90;;;5.70;99.90;;;;;;5015840;28;20920;-74
2023/05/04 03:31:35;;;;;;;13.07;8.90;;;5.80;99.90;;;;;;5006465;28;21027;-73
2023/05/04 03:34:02;;;;;;;14.88;9.70;;;5.80;99.90;;;;;;5005360;28;20812;-72
2023/05/04 03:36:28;;;;;;;13.45;9.60;;;5.80;99.90;;;;;;5006520;28;20455;-73
2023/05/04 03:38:53;;;;;;;12.47;8.67;;;5.80;99.90;;;;;;5004838;28;20861;-72
2023/05/04 03:41:19;;;;;;;13.47;9.60;;;5.70;99.90;;;;;;5005219;28;20519;-73
2023/05/04 03:43:45;;;;;;;12.38;9.13;;;5.80;99.90;;;;;;5013990;28;20455;-72
2023/05/04 03:46:11;;;;;;;12.32;8.85;;;5.80;99.90;;;;;;5003458;28;20437;-75
2023/05/04 03:48:36;;;;;;;11.80;9.25;;;5.80;99.90;;;;;;5010300;28;20501;-73
2023/05/04 03:51:02;;;;;;;14.98;10.13;;;5.80;99.90;;;;;;5011120;28;20428;-72
2023/05/04 03:53:28;;;;;;;12.93;8.55;;;5.90;99.90;;;;;;5002126;28;20420;-73
2023/05/04 03:55:54;;;;;;;12.30;8.57;;;5.80;99.90;;;;;;5010159;28;21063;-74
2023/05/04 03:58:20;;;;;;;14.40;8.55;;;5.80;99.90;;;;;;5017250;28;20427;-72
2023/05/04 04:00:46;;;;;;;11.73;8.47;;;5.90;99.90;;;;;;5014729;28;20432;-73
2023/05/04 04:03:11;;;;;;;15.05;8.88;;;5.80;99.90;;;;;;5018789;28;20419;-72
2023/05/04 04:05:37;;;;;;;14.75;9.77;;;5.80;99.90;;;;;;5029788;28;20419;-73
2023/05/04 04:08:03;;;;;;;13.45;8.15;;;5.80;99.90;;;;;;5012238;28;20429;-72
2023/05/04 04:10:30;;;;;;;14.63;9.93;;;5.80;99.90;;;;;;5011374;28;20408;-73
2023/05/04 04:12:55;;;;;;;15.80;9.40;;;5.90;99.90;;;;;;5014353;28;20434;-74
2023/05/04 04:15:21;;;;;;;16.03;9.80;;;5.90;99.90;;;;;;5013708;28;20444;-76
2023/05/04 04:17:47;;;;;;;14.57;9.23;;;6.00;99.90;;;;;;5007802;28;20568;-72
2023/05/04 04:20:13;;;;;;;9.87;8.07;;;6.10;99.90;;;;;;5009403;28;20438;-72
2023/05/04 04:22:38;;;;;;;15.33;9.57;;;6.00;99.90;;;;;;5009974;28;20409;-73
2023/05/04 04:25:04;;;;;;;14.07;8.83;;;6.00;99.90;;;;;;5028703;28;20418;-72
2023/05/04 04:27:29;;;;;;;11.67;8.00;;;5.90;99.90;;;;;;5011235;28;20436;-75
2023/05/04 04:29:56;;;;;;;15.23;9.23;;;6.00;99.90;;;;;;4993282;28;20467;-73
2023/05/04 04:32:22;;;;;;;10.77;8.38;;;5.90;99.90;;;;;;5007613;28;20428;-73
2023/05/04 04:34:47;;;;;;;14.77;8.50;;;6.00;99.90;;;;;;5007350;28;20589;-72
2023/05/04 04:37:13;;;;;;;13.90;8.53;;;5.90;99.90;;;;;;5002210;28;20750;-75
2023/05/04 04:39:39;;;;;;;12.70;8.73;;;6.00;99.90;;;;;;5008198;28;20676;-73
2023/05/04 04:42:05;;;;;;;10.93;8.10;;;6.00;99.90;;;;;;5007980;28;20438;-75
2023/05/04 04:44:30;;;;;;;11.35;8.02;;;6.10;99.90;;;;;;5011306;28;20531;-72
2023/05/04 04:46:56;;;;;;;12.60;7.72;;;6.10;99.90;;;;;;5011708;28;20511;-72
2023/05/04 04:49:22;;;;;;;11.30;7.65;;;6.10;99.90;;;;;;5008269;28;20427;-72
2023/05/04 04:51:48;;;;;;;13.88;8.27;;;6.10;99.90;;;;;;5008224;28;20429;-71
2023/05/04 04:54:13;;;;;;;15.38;8.80;;;6.10;99.90;;;;;;5015635;28;20948;-73
2023/05/04 04:56:40;;;;;;;11.82;8.13;;;6.10;99.90;;;;;;5021682;28;20796;-71
2023/05/04 04:59:05;;;;;;;11.15;8.20;;;6.30;99.90;;;;;;5013208;28;20451;-73
2023/05/04 05:01:32;;;;;;;11.82;7.38;;;6.20;99.90;;;;;;5004965;28;20433;-72
2023/05/04 05:03:58;;;;;;;10.95;8.35;;;6.40;99.90;;;;;;5009550;28;20432;-76
2023/05/04 05:06:24;;;;;;;12.27;8.35;;;6.40;99.90;;;;;;5006741;28;20722;-72
2023/05/04 05:08:50;;;;;;;13.52;7.95;;;6.40;99.90;;;;;;5012062;28;20430;-71
2023/05/04 05:11:16;;;;;;;11.03;7.27;;;6.50;99.90;;;;;;5026501;28;20411;-72
2023/05/04 05:13:42;;;;;;;13.38;8.50;;;6.40;99.90;;;;;;5008883;28;20425;-71
2023/05/04 05:16:07;;;;;;;13.27;7.88;;;6.60;99.90;;;;;;5010980;28;20506;-72
2023/05/04 05:18:33;;;;;;;12.00;7.57;;;6.50;99.90;;;;;;5003866;28;20420;-72
2023/05/04 05:20:59;;;;;;;11.18;7.43;;;6.50;99.90;;;;;;5005664;28;20518;-71
2023/05/04 05:23:25;;;;;;;10.95;7.60;;;6.60;99.90;;;;;;5009347;28;20423;-72
2023/05/04 05:25:51;;;;;;;12.63;7.13;;;6.60;99.90;;;;;;5008422;28;20417;-73
2023/05/04 05:28:17;;;;;;;12.27;7.43;;;6.70;99.90;;;;;;5008990;28;20480;-72
2023/05/04 05:30:43;;;;;;;12.10;7.30;;;6.70;99.90;;;;;;5007690;28;20459;-73
2023/05/04 05:33:09;;;;;;;10.93;7.00;;;6.90;99.90;;;;;;5007702;28;20405;-73
2023/05/04 05:35:35;;;;;;;12.37;6.83;;;6.80;99.90;;;;;;5004865;28;20809;-72
2023/05/04 05:38:01;;;;;;;11.05;7.13;;;6.90;99.90;;;;;;5006936;28;20413;-71
2023/05/04 05:40:27;;;;;;;11.35;7.10;;;7.10;99.90;;;;;;5006987;28;20479;-73
2023/05/04 05:42:53;;;;;;;14.32;7.97;;;7.10;99.90;;;;;;5008695;28;20417;-74
2023/05/04 05:45:19;;;;;;;12.45;7.00;;;7.30;99.90;;;;;;5006549;28;20447;-72
2023/05/04 05:47:45;;;;;;;10.35;6.72;;;7.20;99.90;;;;;;5008552;28;20409;-72
2023/05/04 05:50:12;;;;;;;10.53;6.73;;;7.40;99.90;;;;;;5015888;28;20430;-71
2023/05/04 05:52:38;;;;;;;12.57;7.35;;;7.50;99.90;;;;;;5026340;28;20399;-72
2023/05/04 05:55:04;;;;;;;13.18;6.75;;;7.50;99.90;;;;;;5012953;28;20519;-72
2023/05/04 05:57:30;;;;;;;13.40;7.17;;;7.50;99.90;;;;;;5010306;28;20427;-72
2023/05/04 05:59:56;;;;;;;12.73;7.30;;;7.60;99.90;;;;;;5007226;28;20513;-72
2023/05/04 06:02:22;;;;;;;12.55;6.55;;;7.80;99.90;;;;;;5014364;28;20435;-72
2023/05/04 06:04:48;;;;;;;13.90;7.03;;;7.90;99.90;;;;;;5016309;28;20417;-73
2023/05/04 06:07:14;;;;;;;11.10;6.87;;;7.80;99.90;;;;;;5005078;28;20432;-72
2023/05/04 06:09:40;;;;;;;11.85;7.53;;;7.80;99.90;;;;;;5006136;28;20435;-72
2023/05/04 06:12:11;;;;;;;12.98;6.80;;;7.90;99.90;;;;;;5007332;28;20417;-72
2023/05/04 06:14:37;;;;;;;14.90;7.65;;;7.80;99.90;;;;;;5003689;28;20857;-73
2023/05/04 06:17:03;;;;;;;9.57;5.88;;;8.10;99.90;;;;;;5013472;28;20961;-71
2023/05/04 06:19:28;;;;;;;15.35;7.22;;;8.40;99.90;;;;;;5006461;28;20419;-72
2023/05/04 06:21:54;;;;;;;12.18;7.65;;;8.40;99.90;;;;;;5006902;28;20800;-73
2023/05/04 06:24:21;;;;;;;14.18;7.10;;;8.30;99.90;;;;;;5002546;28;20983;-71
2023/05/04 06:26:47;;;;;;;13.15;7.50;;;8.30;99.90;;;;;;5007579;28;20940;-72
2023/05/04 06:29:12;;;;;;;14.40;7.03;;;8.30;99.90;;;;;;5005534;28;20413;-71
2023/05/04 06:31:38;;;;;;;12.20;7.63;;;8.50;99.90;;;;;;5006741;28;20480;-73
2023/05/04 06:34:04;;;;;;;12.48;7.00;;;8.40;99.90;;;;;;5004405;28;20428;-72
2023/05/04 06:36:30;;;;;;;12.73;7.97;;;8.30;99.90;;;;;;5017541;28;20434;-73
2023/05/04 06:38:57;;;;;;;14.25;7.18;;;8.40;99.90;;;;;;5013553;28;20433;-72
2023/05/04 06:41:23;;;;;;;12.35;7.00;;;8.70;99.90;;;;;;5013123;28;20449;-72
2023/05/04 06:43:49;;;;;;;12.77;7.20;;;8.70;99.90;;;;;;5019692;28;20552;-73
2023/05/04 06:46:15;;;;;;;12.82;7.63;;;8.80;99.90;;;;;;5002809;28;20462;-72
2023/05/04 06:48:41;;;;;;;13.20;7.35;;;8.80;99.90;;;;;;5000719;28;20425;-73
2023/05/04 06:51:07;;;;;;;12.83;7.33;;;9.00;99.90;;;;;;5003445;28;20443;-73
2023/05/04 06:53:32;;;;;;;11.30;7.27;;;8.90;99.90;;;;;;5001465;28;20420;-73
2023/05/04 06:55:58;;;;;;;13.73;7.50;;;8.90;99.90;;;;;;5007729;28;20445;-74
2023/05/04 06:58:24;;;;;;;12.57;6.70;;;9.10;99.90;;;;;;5008931;28;20499;-72
2023/05/04 07:00:51;;;;;;;11.27;7.65;;;9.30;99.90;;;;;;5017690;28;20435;-71
2023/05/04 07:03:17;;;;;;;10.23;6.97;;;9.70;99.90;;;;;;4993633;28;20981;-72
2023/05/04 07:05:47;;;;;;;10.55;6.85;;;9.80;99.90;;;;;;5004087;28;20444;-73
2023/05/04 07:08:13;;;;;;;13.70;6.70;;;10.10;99.90;;;;;;5007254;28;20439;-72
2023/05/04 07:10:38;;;;;;;10.63;6.20;;;10.70;99.90;;;;;;5010373;28;20426;-73
2023/05/04 07:13:04;;;;;;;12.60;7.03;;;10.20;99.90;;;;;;5012271;28;20436;-73
2023/05/04 07:15:32;;;;;;;15.33;7.40;;;10.60;99.90;;;;;;5009830;28;20515;-73
2023/05/04 07:17:58;;;;;;;10.40;7.23;;;11.10;99.90;;;;;;5026649;28;20403;-72
2023/05/04 07:20:24;;;;;;;13.65;7.07;;;11.20;99.90;;;;;;5009566;28;20963;-75
2023/05/04 07:22:55;;;;;;;10.88;6.70;;;11.10;99.90;;;;;;5014716;28;20471;-73
2023/05/04 07:25:24;;;;;;;14.40;7.60;;;10.60;99.90;;;;;;5003433;28;20436;-73
2023/05/04 07:27:50;;;;;;;10.93;7.05;;;10.70;99.90;;;;;;4999650;28;20805;-72
2023/05/04 07:30:16;;;;;;;13.57;7.18;;;10.60;99.90;;;;;;5005174;28;20434;-72
2023/05/04 07:32:42;;;;;;;11.40;7.20;;;10.40;99.90;;;;;;5006744;28;20976;-73
2023/05/04 07:35:08;;;;;;;11.38;6.47;;;10.60;99.90;;;;;;5006133;28;20432;-72
2023/05/04 07:37:34;;;;;;;14.35;6.97;;;10.70;99.90;;;;;;5006869;28;20491;-72
2023/05/04 07:40:00;;;;;;;9.57;6.22;;;11.00;99.90;;;;;;5012616;28;20514;-74
2023/05/04 07:42:26;;;;;;;10.97;6.23;;;11.00;99.90;;;;;;5029139;28;20450;-73
2023/05/04 07:44:52;;;;;;;11.40;5.85;;;10.90;99.90;;;;;;5010250;28;20561;-74
2023/05/04 07:47:18;;;;;;;11.33;6.67;;;11.10;99.90;;;;;;5013995;28;20467;-73
2023/05/04 07:49:44;;;;;;;10.75;6.85;;;11.10;99.90;;;;;;5010223;28;20426;-73
2023/05/04 07:52:11;;;;;;;10.70;5.65;;;11.10;99.90;;;;;;5027656;28;20430;-73
2023/05/04 07:54:37;;;;;;;14.00;6.78;;;11.30;99.90;;;;;;5007273;28;20429;-74
2023/05/04 07:57:02;;;;;;;9.60;6.55;;;11.00;99.90;;;;;;5018575;28;20500;-73
2023/05/04 07:59:29;;;;;;;12.55;6.03;;;11.00;99.90;;;;;;5024162;28;20484;-74
2023/05/04 08:01:55;;;;;;;9.98;6.22;;;11.30;99.90;;;;;;5012516;28;20503;-74
2023/05/04 08:04:21;;;;;;;9.20;5.93;;;11.20;99.90;;;;;;5006626;28;20563;-74
2023/05/04 08:06:48;;;;;;;11.82;7.07;;;11.60;99.90;;;;;;5024983;28;20432;-75
2023/05/04 08:09:14;;;;;;;9.70;6.63;;;11.50;99.90;;;;;;5005758;28;20436;-74
2023/05/04 08:11:40;;;;;;;8.93;5.63;;;11.30;99.90;;;;;;5008981;28;20560;-73
2023/05/04 08:14:06;;;;;;;10.60;6.80;;;11.70;99.90;;;;;;5013896;28;20507;-74
2023/05/04 08:16:32;;;;;;;9.35;5.53;;;11.40;99.90;;;;;;4991255;28;20523;-71
2023/05/04 08:19:00;;;;;;;11.90;6.20;;;12.10;99.90;;;;;;5008069;28;20825;-73
2023/05/04 08:21:26;;;;;;;13.98;6.25;;;11.80;99.90;;;;;;5007762;28;20473;-74
2023/05/04 08:23:52;;;;;;;12.18;5.63;;;12.10;99.90;;;;;;5005667;28;20433;-73
2023/05/04 08:26:18;;;;;;;11.00;7.10;;;12.00;99.90;;;;;;5004672;28;20471;-74
2023/05/04 08:28:45;;;;;;;8.57;5.53;;;11.90;99.90;;;;;;5012050;28;20425;-75
2023/05/04 08:31:11;;;;;;;9.52;6.55;;;11.70;99.90;;;;;;5009101;28;20437;-73
2023/05/04 08:33:36;;;;;;;9.57;6.47;;;12.20;99.90;;;;;;5007493;28;20908;-72
2023/05/04 08:36:04;;;;;;;10.30;5.53;;;12.40;99.90;;;;;;5017753;28;20449;-73
2023/05/04 08:38:30;;;;;;;14.40;6.32;;;12.60;99.90;;;;;;5015432;28;20415;-73
2023/05/04 08:40:56;;;;;;;12.35;6.60;;;12.50;99.90;;;;;;5015780;28;20450;-73
2023/05/04 08:43:22;;;;;;;10.90;6.40;;;12.70;99.90;;;;;;5026754;28;20803;-73
2023/05/04 08:45:49;;;;;;;13.05;6.00;;;12.40;99.90;;;;;;5017624;28;20446;-72
2023/05/04 08:48:15;;;;;;;8.65;5.82;;;12.30;99.90;;;;;;5012425;28;20505;-72
2023/05/04 08:50:41;;;;;;;11.43;5.72;;;12.30;99.90;;;;;;5025486;28;20424;-73
2023/05/04 08:53:10;;;;;;;10.00;5.68;;;12.70;99.90;;;;;;4987447;28;20429;-74
2023/05/04 08:55:37;;;;;;;8.75;5.20;;;12.80;99.90;;;;;;5009689;28;20415;-73
2023/05/04 08:58:11;;;;;;;9.68;6.10;;;12.60;99.90;;;;;;5016916;28;20481;-73
2023/05/04 09:00:38;;;;;;;15.55;5.90;;;12.60;99.90;;;;;;4996775;28;20465;-73
2023/05/04 09:03:04;;;;;;;14.35;5.53;;;12.90;99.90;;;;;;5013794;28;20421;-73
2023/05/04 09:05:31;;;;;;;10.95;5.93;;;13.10;99.90;;;;;;5008496;28;20479;-72
2023/05/04 09:07:57;;;;;;;9.50;6.60;;;13.40;99.90;;;;;;5008740;28;20432;-73
2023/05/04 09:10:24;;;;;;;10.23;4.88;;;13.00;99.90;;;;;;5007626;28;20431;-72
2023/05/04 09:12:52;;;;;;;11.88;5.43;;;13.10;99.90;;;;;;5005848;28;20466;-73
2023/05/04 09:15:19;;;;;;;10.52;5.82;;;13.20;99.90;;;;;;5005836;28;20824;-73
2023/05/04 09:18:17;;;;;;;12.30;5.67;;;13.40;99.90;;;;;;5006084;28;20487;-71
2023/05/04 09:20:46;;;;;;;9.80;5.68;;;13.80;99.90;;;;;;4988899;28;20443;-73
2023/05/04 09:23:13;;;;;;;8.82;5.05;;;13.70;99.90;;;;;;5004374;28;21297;-73
2023/05/04 09:25:49;;;;;;;10.27;6.00;;;13.40;99.90;;;;;;5010627;28;20439;-72
2023/05/04 09:28:15;;;;;;;12.57;5.47;;;14.00;99.90;;;;;;5001463;28;20435;-73
2023/05/04 09:30:41;;;;;;;10.27;5.00;;;13.90;99.90;;;;;;5007311;28;20822;-73
2023/05/04 09:33:08;;;;;;;10.65;5.20;;;14.40;99.90;;;;;;5008301;28;20121;-72
2023/05/04 09:35:34;;;;;;;7.10;5.68;;;13.80;99.90;;;;;;5006169;28;20120;-73
2023/05/04 09:37:59;;;;;;;9.75;4.72;;;13.90;99.90;;;;;;5009013;28;20042;-72
2023/05/04 09:40:35;;;;;;;8.27;5.25;;;13.90;99.90;;;;;;5008485;28;20054;-72
2023/05/04 09:43:01;;;;;;;7.90;4.93;;;13.80;99.90;;;;;;5006266;28;20041;-72
2023/05/04 09:45:40;;;;;;;7.50;4.07;;;13.70;99.90;;;;;;5008080;28;20491;-73
2023/05/04 09:48:19;;;;;;;9.30;4.80;;;13.60;99.90;;;;;;5007530;28;20038;-73
2023/05/04 09:50:51;;;;;;;10.45;4.65;;;13.60;99.90;;;;;;5007820;28;20125;-75
2023/05/04 09:53:21;;;;;;;12.65;5.75;;;13.50;99.90;;;;;;5005997;28;20081;-75
2023/05/04 09:55:56;;;;;;;12.75;5.40;;;13.80;99.90;;;;;;5006048;28;20053;-72
2023/05/04 09:58:23;;;;;;;12.05;6.13;;;14.00;99.90;;;;;;5002705;28;20126;-72
2023/05/04 10:00:49;;;;;;;15.57;7.25;;;14.10;99.90;;;;;;5006272;28;20502;-73
2023/05/04 10:03:15;;;;;;;15.13;5.20;;;14.30;99.90;;;;;;5006184;28;20044;-72
2023/05/04 10:05:41;;;;;;;8.95;5.30;;;14.20;99.90;;;;;;5003755;28;20045;-74
2023/05/04 10:08:07;;;;;;;14.05;6.18;;;14.50;99.90;;;;;;5008486;28;20042;-74
2023/05/04 10:10:34;;;;;;;13.35;4.85;;;14.80;99.90;;;;;;5014981;28;20041;-73
2023/05/04 10:13:00;;;;;;;9.73;4.90;;;14.80;99.90;;;;;;5006752;28;20042;-74
2023/05/04 10:15:27;;;;;;;12.05;4.85;;;14.80;99.90;;;;;;5013443;28;20057;-74
2023/05/04 10:18:04;;;;;;;7.32;4.47;;;14.70;99.90;;;;;;4997135;28;20046;-73
2023/05/04 10:21:03;;;;;;;9.30;4.47;;;14.80;99.90;;;;;;5006888;28;20070;-73
2023/05/04 10:23:53;;;;;;;11.30;5.20;;;14.80;99.90;;;;;;5006536;28;20056;-75
2023/05/04 10:26:31;;;;;;;;;;;15.10;99.90;;;;;;5012734;28;20084;-74
2023/05/04 10:29:16;;;;;;;7.10;4.63;;;15.60;99.90;;;;;;5007100;28;19921;-75
2023/05/04 10:31:43;;;;;;;10.70;4.30;;;15.50;99.90;;;;;;5022518;28;20061;-74
2023/05/04 10:34:10;;;;;;;7.47;4.95;;;15.10;99.90;;;;;;5005986;28;20125;-75
2023/05/04 10:36:37;;;;;;;8.95;5.50;;;15.10;99.90;;;;;;5015333;28;20050;-74
2023/05/04 10:39:03;;;;;;;16.98;5.90;;;15.20;99.90;;;;;;5004288;28;20042;-75
2023/05/04 10:41:30;;;;;;;8.07;4.88;;;15.40;99.90;;;;;;5007419;28;20084;-76
2023/05/04 10:44:03;;;;;;;8.65;4.63;;;15.50;99.90;;;;;;5006847;28;20061;-73
2023/05/04 10:46:28;;;;;;;7.30;4.03;;;15.50;99.90;;;;;;5013393;28;20179;-75
2023/05/04 10:48:54;;;;;;;9.65;4.68;;;15.50;99.90;;;;;;4997544;28;20504;-74
2023/05/04 10:51:21;;;;;;;9.20;4.43;;;15.60;99.90;;;;;;5001908;28;20096;-73
2023/05/04 10:53:47;;;;;;;10.63;4.43;;;15.70;99.90;;;;;;5007296;28;20216;-72
2023/05/04 10:56:26;;;;;;;12.32;5.20;;;15.80;99.90;;;;;;5017494;28;20132;-73
2023/05/04 10:58:52;;;;;;;8.77;5.30;;;15.70;99.90;;;;;;5008339;28;20050;-74
2023/05/04 11:01:20;;;;;;;9.20;4.50;;;15.60;99.90;;;;;;5021411;28;20087;-74
2023/05/04 11:03:47;;;;;;;7.68;4.53;;;15.70;99.90;;;;;;5028772;28;20050;-75
2023/05/04 11:06:17;;;;;;;10.38;4.25;;;16.00;99.90;;;;;;5019232;28;20041;-74
2023/05/04 11:08:46;;;;;;;10.43;4.47;;;16.50;99.90;;;;;;5012241;28;20064;-73
2023/05/04 11:11:13;;;;;;;8.13;4.85;;;16.20;99.90;;;;;;5028119;28;20037;-75
2023/05/04 11:13:46;;;;;;;14.80;5.30;;;16.30;99.90;;;;;;5011388;28;20174;-72
2023/05/04 11:16:13;;;;;;;14.48;4.88;;;16.60;99.90;;;;;;5018076;28;20056;-74
2023/05/04 11:18:40;;;;;;;7.38;4.72;;;16.20;99.90;;;;;;5017016;28;20038;-73
2023/05/04 11:21:07;;;;;;;9.40;4.45;;;16.20;99.90;;;;;;5010422;28;20038;-73
2023/05/04 11:23:33;;;;;;;6.50;3.63;;;16.40;99.90;;;;;;5010996;28;20509;-74
2023/05/04 11:26:07;;;;;;;6.70;3.88;;;16.50;99.90;;;;;;5012792;28;20033;-73
2023/05/04 11:28:33;;;;;;;10.32;3.88;;;16.60;99.90;;;;;;5011828;28;20124;-74
2023/05/04 11:30:59;;;;;;;8.05;4.72;;;16.80;99.90;;;;;;5013353;28;20053;-75
2023/05/04 11:33:25;;;;;;;6.85;4.78;;;16.90;99.90;;;;;;5012639;28;20178;-73
2023/05/04 11:36:00;;;;;;;5.05;3.10;;;17.10;99.90;;;;;;5009972;28;20116;-74
2023/05/04 11:38:26;;;;;;;13.02;3.70;;;17.30;99.90;;;;;;5002661;28;20074;-74
2023/05/04 11:40:51;;;;;;;6.63;4.13;;;17.30;99.90;;;;;;5020766;28;20049;-74
2023/05/04 11:43:18;;;;;;;9.50;4.00;;;17.50;99.90;;;;;;5012015;28;20177;-74
2023/05/04 11:45:47;;;;;;;7.93;3.17;;;17.50;99.90;;;;;;5011591;28;20076;-74
2023/05/04 11:48:13;;;;;;;7.78;3.47;;;17.50;99.90;;;;;;5017621;28;20046;-75
2023/05/04 11:50:39;;;;;;;8.10;3.65;;;17.60;99.90;;;;;;5009755;28;20057;-73
2023/05/04 11:53:10;;;;;;;10.77;3.60;;;17.60;99.90;;;;;;5012546;28;20046;-74
2023/05/04 11:55:36;;;;;;;8.32;3.60;;;17.60;99.90;;;;;;5011076;28;20053;-75
2023/05/04 11:58:05;;;;;;;8.07;3.70;;;17.40;99.90;;;;;;5012204;28;20048;-75
2023/05/04 12:00:45;;;;;;;7.38;3.25;;;17.60;99.90;;;;;;4994750;28;20049;-74
2023/05/04 12:03:16;;;;;;;7.80;3.75;;;17.80;99.90;;;;;;5008039;28;20060;-75
2023/05/04 12:05:46;;;;;;;4.68;2.53;;;17.60;99.90;;;;;;4990263;28;20201;-73
2023/05/04 12:08:21;;;;;;;8.77;4.90;;;17.40;99.90;;;;;;5006981;28;20046;-77
2023/05/04 12:10:47;;;;;;;7.25;3.50;;;17.60;99.90;;;;;;4993272;28;20540;-74
2023/05/04 12:13:16;;;;;;;6.15;3.50;;;17.80;99.90;;;;;;5010472;28;20045;-72
2023/05/04 12:15:42;;;;;;;5.38;3.63;;;17.90;99.90;;;;;;5024101;28;20050;-75
2023/05/04 12:18:20;;;;;;;8.13;4.75;;;17.80;99.90;;;;;;5011063;28;20054;-75
2023/05/04 12:20:47;;;;;;;12.32;4.65;;;17.80;99.90;;;;;;5007615;28;20050;-74
2023/05/04 12:23:12;;;;;;;4.10;3.10;;;17.80;99.90;;;;;;5009701;28;20070;-74
2023/05/04 12:25:38;;;;;;;9.13;3.53;;;18.00;99.90;;;;;;5010303;28;20407;-75
2023/05/04 12:28:04;;;;;;;9.55;3.47;;;18.10;99.90;;;;;;5010064;28;20077;-74
2023/05/04 12:30:30;;;;;;;7.30;3.50;;;18.30;99.90;;;;;;5007107;28;20473;-74
2023/05/04 12:32:56;;;;;;;8.20;4.30;;;18.20;99.90;;;;;;5010941;28;20045;-75
2023/05/04 12:35:21;;;;;;;14.68;5.38;;;18.00;99.90;;;;;;5008709;28;20414;-75
2023/05/04 12:37:47;;;;;;;9.43;3.75;;;18.30;99.90;;;;;;5010811;28;20054;-75
2023/05/04 12:40:13;;;;;;;7.97;4.22;;;18.40;99.90;;;;;;5009716;28;20049;-75
2023/05/04 12:42:41;;;;;;;9.23;5.10;;;18.50;99.90;;;;;;5011397;28;20088;-75
2023/05/04 12:45:07;;;;;;;11.25;5.85;;;18.50;99.90;;;;;;5006244;28;20046;-74